sensor_id;sensor_type;location;lat;lon;timestamp;P1;durP1;ratioP1;P2;durP2;ratioP2
20657;SDS011;10488;50.846;4.078;2023-12-04T00:01:12;12.80;;;6.03;;
20657;SDS011;10488;50.846;4.078;2023-12-04T00:03:39;10.93;;;5.77;;
20657;SDS011;10488;50.846;4.078;2023-12-04T00:06:04;9.70;;;5.30;;
20657;SDS011;10488;50.846;4.078;2023-12-04T00:08:30;8.43;;;4.80;;
20657;SDS011;10488;50.846;4.078;2023-12-04T00:10:57;11.10;;;6.13;;
20657;SDS011;10488;50.846;4.078;2023-12-04T00:13:22;10.50;;;4.93;;
20657;SDS011;10488;50.846;4.078;2023-12-04T00:15:48;11.47;;;5.93;;
20657;SDS011;10488;50.846;4.078;2023-12-04T00:18:14;12.00;;;5.37;;
20657;SDS011;10488;50.846;4.078;2023-12-04T00:20:40;8.57;;;5.20;;
20657;SDS011;10488;50.846;4.078;2023-12-04T00:23:05;11.47;;;5.37;;
20657;SDS011;10488;50.846;4.078;2023-12-04T00:25:31;11.87;;;6.20;;
20657;SDS011;10488;50.846;4.078;2023-12-04T00:27:57;11.63;;;5.50;;
20657;SDS011;10488;50.846;4.078;2023-12-04T00:30:22;9.90;;;5.60;;
20657;SDS011;10488;50.846;4.078;2023-12-04T00:32:48;11.10;;;5.57;;
20657;SDS011;10488;50.846;4.078;2023-12-04T00:35:14;8.43;;;4.93;;
20657;SDS011;10488;50.846;4.078;2023-12-04T00:37:39;10.33;;;5.67;;
20657;SDS011;10488;50.846;4.078;2023-12-04T00:40:05;10.83;;;5.17;;
20657;SDS011;10488;50.846;4.078;2023-12-04T00:42:32;9.67;;;5.20;;
20657;SDS011;10488;50.846;4.078;2023-12-04T00:44:58;8.97;;;5.07;;
20657;SDS011;10488;50.846;4.078;2023-12-04T00:47:24;8.03;;;4.93;;
20657;SDS011;10488;50.846;4.078;2023-12-04T00:49:50;10.23;;;5.17;;
20657;SDS011;10488;50.846;4.078;2023-12-04T00:52:15;11.97;;;5.80;;
20657;SDS011;10488;50.846;4.078;2023-12-04T00:54:41;11.53;;;4.73;;
20657;SDS011;10488;50.846;4.078;2023-12-04T00:57:07;10.97;;;5.40;;
20657;SDS011;10488;50.846;4.078;2023-12-04T00:59:33;9.47;;;4.97;;
20657;SDS011;10488;50.846;4.078;2023-12-04T01:01:59;12.13;;;4.80;;
20657;SDS011;10488;50.846;4.078;2023-12-04T01:04:24;10.47;;;4.90;;
20657;SDS011;10488;50.846;4.078;2023-12-04T01:06:50;10.07;;;5.13;;
20657;SDS011;10488;50.846;4.078;2023-12-04T01:09:17;9.07;;;4.43;;
20657;SDS011;10488;50.846;4.078;2023-12-04T01:11:43;9.13;;;4.90;;
20657;SDS011;10488;50.846;4.078;2023-12-04T01:14:09;10.37;;;4.57;;
20657;SDS011;10488;50.846;4.078;2023-12-04T01:16:34;8.60;;;4.33;;
20657;SDS011;10488;50.846;4.078;2023-12-04T01:19:00;9.97;;;5.30;;
20657;SDS011;10488;50.846;4.078;2023-12-04T01:21:26;7.93;;;4.80;;
20657;SDS011;10488;50.846;4.078;2023-12-04T01:23:51;12.40;;;5.63;;
20657;SDS011;10488;50.846;4.078;2023-12-04T01:26:17;8.03;;;4.50;;
20657;SDS011;10488;50.846;4.078;2023-12-04T01:28:43;9.33;;;4.87;;
20657;SDS011;10488;50.846;4.078;2023-12-04T01:31:08;8.37;;;4.17;;
20657;SDS011;10488;50.846;4.078;2023-12-04T01:33:34;8.23;;;5.20;;
20657;SDS011;10488;50.846;4.078;2023-12-04T01:36:00;10.20;;;5.20;;
20657;SDS011;10488;50.846;4.078;2023-12-04T01:38:27;10.00;;;4.70;;
20657;SDS011;10488;50.846;4.078;2023-12-04T01:40:53;9.60;;;5.10;;
20657;SDS011;10488;50.846;4.078;2023-12-04T01:43:18;8.47;;;4.47;;
20657;SDS011;10488;50.846;4.078;2023-12-04T01:45:44;9.60;;;5.13;;
20657;SDS011;10488;50.846;4.078;2023-12-04T01:48:10;8.90;;;4.30;;
20657;SDS011;10488;50.846;4.078;2023-12-04T01:50:38;9.03;;;4.60;;
20657;SDS011;10488;50.846;4.078;2023-12-04T01:53:05;6.10;;;3.80;;
20657;SDS011;10488;50.846;4.078;2023-12-04T01:55:31;7.87;;;4.50;;
20657;SDS011;10488;50.846;4.078;2023-12-04T01:57:59;9.97;;;5.40;;
20657;SDS011;10488;50.846;4.078;2023-12-04T02:00:28;9.07;;;4.77;;
20657;SDS011;10488;50.846;4.078;2023-12-04T02:02:55;9.70;;;4.83;;
20657;SDS011;10488;50.846;4.078;2023-12-04T02:05:21;10.77;;;4.73;;
20657;SDS011;10488;50.846;4.078;2023-12-04T02:07:47;9.93;;;4.70;;
20657;SDS011;10488;50.846;4.078;2023-12-04T02:10:13;8.53;;;4.50;;
20657;SDS011;10488;50.846;4.078;2023-12-04T02:12:39;9.57;;;5.13;;
20657;SDS011;10488;50.846;4.078;2023-12-04T02:15:05;8.63;;;4.67;;
20657;SDS011;10488;50.846;4.078;2023-12-04T02:17:31;10.97;;;5.03;;
20657;SDS011;10488;50.846;4.078;2023-12-04T02:19:59;7.47;;;4.73;;
20657;SDS011;10488;50.846;4.078;2023-12-04T02:22:24;8.80;;;4.63;;
20657;SDS011;10488;50.846;4.078;2023-12-04T02:24:50;10.00;;;5.40;;
20657;SDS011;10488;50.846;4.078;2023-12-04T02:27:18;9.23;;;5.17;;
20657;SDS011;10488;50.846;4.078;2023-12-04T02:30:00;9.00;;;4.97;;
20657;SDS011;10488;50.846;4.078;2023-12-04T02:32:30;7.77;;;4.70;;
20657;SDS011;10488;50.846;4.078;2023-12-04T02:34:59;8.60;;;4.67;;
20657;SDS011;10488;50.846;4.078;2023-12-04T02:37:28;8.97;;;4.87;;
20657;SDS011;10488;50.846;4.078;2023-12-04T02:39:54;10.07;;;4.93;;
20657;SDS011;10488;50.846;4.078;2023-12-04T02:42:21;8.10;;;4.97;;
20657;SDS011;10488;50.846;4.078;2023-12-04T02:44:50;7.27;;;3.90;;
20657;SDS011;10488;50.846;4.078;2023-12-04T02:47:16;7.60;;;4.10;;
20657;SDS011;10488;50.846;4.078;2023-12-04T02:49:42;7.73;;;4.50;;
20657;SDS011;10488;50.846;4.078;2023-12-04T02:52:08;9.43;;;4.73;;
20657;SDS011;10488;50.846;4.078;2023-12-04T02:54:33;9.00;;;4.80;;
20657;SDS011;10488;50.846;4.078;2023-12-04T02:56:59;9.47;;;4.47;;
20657;SDS011;10488;50.846;4.078;2023-12-04T02:59:25;9.83;;;4.63;;
20657;SDS011;10488;50.846;4.078;2023-12-04T03:01:50;8.87;;;4.33;;
20657;SDS011;10488;50.846;4.078;2023-12-04T03:04:16;9.13;;;4.03;;
20657;SDS011;10488;50.846;4.078;2023-12-04T03:06:42;7.47;;;4.33;;
20657;SDS011;10488;50.846;4.078;2023-12-04T03:09:07;8.13;;;4.13;;
20657;SDS011;10488;50.846;4.078;2023-12-04T03:11:33;6.73;;;3.97;;
20657;SDS011;10488;50.846;4.078;2023-12-04T03:13:59;7.63;;;4.23;;
20657;SDS011;10488;50.846;4.078;2023-12-04T03:16:26;7.37;;;3.83;;
20657;SDS011;10488;50.846;4.078;2023-12-04T03:18:52;7.97;;;4.07;;
20657;SDS011;10488;50.846;4.078;2023-12-04T03:21:17;8.53;;;4.60;;
20657;SDS011;10488;50.846;4.078;2023-12-04T03:23:43;7.70;;;4.37;;
20657;SDS011;10488;50.846;4.078;2023-12-04T03:26:09;7.77;;;4.07;;
20657;SDS011;10488;50.846;4.078;2023-12-04T03:28:34;7.77;;;4.37;;
20657;SDS011;10488;50.846;4.078;2023-12-04T03:31:00;9.23;;;4.47;;
20657;SDS011;10488;50.846;4.078;2023-12-04T03:33:27;8.90;;;4.40;;
20657;SDS011;10488;50.846;4.078;2023-12-04T03:35:52;6.63;;;4.23;;
20657;SDS011;10488;50.846;4.078;2023-12-04T03:38:18;5.17;;;3.83;;
20657;SDS011;10488;50.846;4.078;2023-12-04T03:40:44;7.93;;;3.97;;
20657;SDS011;10488;50.846;4.078;2023-12-04T03:43:09;6.97;;;3.77;;
20657;SDS011;10488;50.846;4.078;2023-12-04T03:45:35;9.60;;;3.77;;
20657;SDS011;10488;50.846;4.078;2023-12-04T03:48:01;6.60;;;3.83;;
20657;SDS011;10488;50.846;4.078;2023-12-04T03:50:26;6.27;;;3.87;;
20657;SDS011;10488;50.846;4.078;2023-12-04T03:52:52;8.87;;;3.80;;
20657;SDS011;10488;50.846;4.078;2023-12-04T03:55:18;6.57;;;3.93;;
20657;SDS011;10488;50.846;4.078;2023-12-04T03:57:45;8.43;;;4.23;;
20657;SDS011;10488;50.846;4.078;2023-12-04T04:00:11;8.40;;;4.13;;
20657;SDS011;10488;50.846;4.078;2023-12-04T04:02:38;8.03;;;4.23;;
20657;SDS011;10488;50.846;4.078;2023-12-04T04:05:05;6.13;;;4.10;;
20657;SDS011;10488;50.846;4.078;2023-12-04T04:07:30;7.47;;;3.77;;
20657;SDS011;10488;50.846;4.078;2023-12-04T04:09:56;8.63;;;4.10;;
20657;SDS011;10488;50.846;4.078;2023-12-04T04:12:22;7.37;;;3.93;;
20657;SDS011;10488;50.846;4.078;2023-12-04T04:14:48;6.23;;;3.53;;
20657;SDS011;10488;50.846;4.078;2023-12-04T04:17:14;6.17;;;3.80;;
20657;SDS011;10488;50.846;4.078;2023-12-04T04:19:40;6.30;;;3.47;;
20657;SDS011;10488;50.846;4.078;2023-12-04T04:22:06;8.13;;;4.00;;
20657;SDS011;10488;50.846;4.078;2023-12-04T04:24:32;8.83;;;3.47;;
20657;SDS011;10488;50.846;4.078;2023-12-04T04:26:57;8.20;;;4.50;;
20657;SDS011;10488;50.846;4.078;2023-12-04T04:29:23;10.67;;;4.80;;
20657;SDS011;10488;50.846;4.078;2023-12-04T04:31:49;6.67;;;3.97;;
20657;SDS011;10488;50.846;4.078;2023-12-04T04:34:15;8.77;;;3.90;;
20657;SDS011;10488;50.846;4.078;2023-12-04T04:36:42;7.17;;;3.87;;
20657;SDS011;10488;50.846;4.078;2023-12-04T04:39:08;6.77;;;3.97;;
20657;SDS011;10488;50.846;4.078;2023-12-04T04:41:36;6.47;;;3.60;;
20657;SDS011;10488;50.846;4.078;2023-12-04T04:44:01;6.80;;;4.43;;
20657;SDS011;10488;50.846;4.078;2023-12-04T04:46:27;8.13;;;3.70;;
20657;SDS011;10488;50.846;4.078;2023-12-04T04:48:53;5.30;;;3.33;;
20657;SDS011;10488;50.846;4.078;2023-12-04T04:51:19;5.90;;;3.70;;
20657;SDS011;10488;50.846;4.078;2023-12-04T04:53:44;8.80;;;4.13;;
20657;SDS011;10488;50.846;4.078;2023-12-04T04:56:10;6.63;;;4.07;;
20657;SDS011;10488;50.846;4.078;2023-12-04T04:58:36;6.30;;;3.87;;
20657;SDS011;10488;50.846;4.078;2023-12-04T05:01:02;6.83;;;4.30;;
20657;SDS011;10488;50.846;4.078;2023-12-04T05:03:28;7.37;;;3.93;;
20657;SDS011;10488;50.846;4.078;2023-12-04T05:05:53;7.57;;;4.20;;
20657;SDS011;10488;50.846;4.078;2023-12-04T05:08:19;7.90;;;4.10;;
20657;SDS011;10488;50.846;4.078;2023-12-04T05:10:45;6.40;;;4.23;;
20657;SDS011;10488;50.846;4.078;2023-12-04T05:13:10;7.40;;;4.57;;
20657;SDS011;10488;50.846;4.078;2023-12-04T05:15:36;7.83;;;4.10;;
20657;SDS011;10488;50.846;4.078;2023-12-04T05:18:02;8.47;;;3.70;;
20657;SDS011;10488;50.846;4.078;2023-12-04T05:20:27;6.60;;;3.70;;
20657;SDS011;10488;50.846;4.078;2023-12-04T05:22:53;6.57;;;3.70;;
20657;SDS011;10488;50.846;4.078;2023-12-04T05:25:19;6.33;;;4.10;;
20657;SDS011;10488;50.846;4.078;2023-12-04T05:27:44;7.93;;;4.43;;
20657;SDS011;10488;50.846;4.078;2023-12-04T05:30:11;7.13;;;3.60;;
20657;SDS011;10488;50.846;4.078;2023-12-04T05:32:36;8.27;;;4.17;;
20657;SDS011;10488;50.846;4.078;2023-12-04T05:35:02;6.63;;;4.10;;
20657;SDS011;10488;50.846;4.078;2023-12-04T05:37:28;6.83;;;4.17;;
20657;SDS011;10488;50.846;4.078;2023-12-04T05:39:54;7.77;;;3.97;;
20657;SDS011;10488;50.846;4.078;2023-12-04T05:42:19;5.32;;;3.47;;
20657;SDS011;10488;50.846;4.078;2023-12-04T05:44:45;6.60;;;3.50;;
20657;SDS011;10488;50.846;4.078;2023-12-04T05:47:11;7.90;;;4.40;;
20657;SDS011;10488;50.846;4.078;2023-12-04T05:49:36;6.30;;;3.73;;
20657;SDS011;10488;50.846;4.078;2023-12-04T05:52:02;6.33;;;3.30;;
20657;SDS011;10488;50.846;4.078;2023-12-04T05:54:28;8.83;;;3.77;;
20657;SDS011;10488;50.846;4.078;2023-12-04T05:56:54;6.50;;;3.37;;
20657;SDS011;10488;50.846;4.078;2023-12-04T05:59:19;6.20;;;3.50;;
20657;SDS011;10488;50.846;4.078;2023-12-04T06:01:45;6.53;;;3.73;;
20657;SDS011;10488;50.846;4.078;2023-12-04T06:04:11;5.07;;;3.30;;
20657;SDS011;10488;50.846;4.078;2023-12-04T06:06:36;7.33;;;3.27;;
20657;SDS011;10488;50.846;4.078;2023-12-04T06:09:02;5.03;;;3.23;;
20657;SDS011;10488;50.846;4.078;2023-12-04T06:11:28;4.77;;;2.90;;
20657;SDS011;10488;50.846;4.078;2023-12-04T06:13:53;5.13;;;3.47;;
20657;SDS011;10488;50.846;4.078;2023-12-04T06:16:19;6.60;;;2.80;;
20657;SDS011;10488;50.846;4.078;2023-12-04T06:18:44;7.67;;;3.70;;
20657;SDS011;10488;50.846;4.078;2023-12-04T06:21:10;5.70;;;3.03;;
20657;SDS011;10488;50.846;4.078;2023-12-04T06:23:36;5.10;;;2.90;;
20657;SDS011;10488;50.846;4.078;2023-12-04T06:26:02;6.77;;;3.40;;
20657;SDS011;10488;50.846;4.078;2023-12-04T06:28:28;6.27;;;3.33;;
20657;SDS011;10488;50.846;4.078;2023-12-04T06:30:54;6.57;;;2.93;;
20657;SDS011;10488;50.846;4.078;2023-12-04T06:33:20;4.70;;;2.93;;
20657;SDS011;10488;50.846;4.078;2023-12-04T06:35:46;5.47;;;3.13;;
20657;SDS011;10488;50.846;4.078;2023-12-04T06:38:13;3.37;;;2.47;;
20657;SDS011;10488;50.846;4.078;2023-12-04T06:40:44;4.20;;;2.87;;
20657;SDS011;10488;50.846;4.078;2023-12-04T06:43:10;3.77;;;2.53;;
20657;SDS011;10488;50.846;4.078;2023-12-04T06:45:36;6.57;;;3.33;;
20657;SDS011;10488;50.846;4.078;2023-12-04T06:48:02;4.30;;;2.87;;
20657;SDS011;10488;50.846;4.078;2023-12-04T06:50:28;4.97;;;3.10;;
20657;SDS011;10488;50.846;4.078;2023-12-04T06:52:53;6.37;;;3.77;;
20657;SDS011;10488;50.846;4.078;2023-12-04T06:55:19;6.73;;;3.63;;
20657;SDS011;10488;50.846;4.078;2023-12-04T06:57:45;4.37;;;3.27;;
20657;SDS011;10488;50.846;4.078;2023-12-04T07:00:11;5.67;;;3.50;;
20657;SDS011;10488;50.846;4.078;2023-12-04T07:02:41;3.90;;;2.73;;
20657;SDS011;10488;50.846;4.078;2023-12-04T07:05:07;6.17;;;3.70;;
20657;SDS011;10488;50.846;4.078;2023-12-04T07:07:33;5.67;;;3.63;;
20657;SDS011;10488;50.846;4.078;2023-12-04T07:09:58;6.47;;;3.67;;
20657;SDS011;10488;50.846;4.078;2023-12-04T07:12:24;5.83;;;3.43;;
20657;SDS011;10488;50.846;4.078;2023-12-04T07:14:50;5.13;;;3.40;;
20657;SDS011;10488;50.846;4.078;2023-12-04T07:17:16;6.57;;;3.63;;
20657;SDS011;10488;50.846;4.078;2023-12-04T07:19:41;7.03;;;3.37;;
20657;SDS011;10488;50.846;4.078;2023-12-04T07:22:07;4.87;;;3.27;;
20657;SDS011;10488;50.846;4.078;2023-12-04T07:24:33;5.07;;;3.27;;
20657;SDS011;10488;50.846;4.078;2023-12-04T07:26:59;7.63;;;4.07;;
20657;SDS011;10488;50.846;4.078;2023-12-04T07:29:24;6.27;;;3.67;;
20657;SDS011;10488;50.846;4.078;2023-12-04T07:31:50;5.57;;;3.23;;
20657;SDS011;10488;50.846;4.078;2023-12-04T07:34:16;7.77;;;3.83;;
20657;SDS011;10488;50.846;4.078;2023-12-04T07:36:42;6.70;;;4.17;;
20657;SDS011;10488;50.846;4.078;2023-12-04T07:39:09;4.57;;;3.47;;
20657;SDS011;10488;50.846;4.078;2023-12-04T07:41:35;6.23;;;3.30;;
20657;SDS011;10488;50.846;4.078;2023-12-04T07:44:02;6.90;;;4.00;;
20657;SDS011;10488;50.846;4.078;2023-12-04T07:46:28;9.27;;;4.77;;
20657;SDS011;10488;50.846;4.078;2023-12-04T07:48:54;6.60;;;3.77;;
20657;SDS011;10488;50.846;4.078;2023-12-04T07:51:20;6.23;;;3.73;;
20657;SDS011;10488;50.846;4.078;2023-12-04T07:53:46;5.87;;;3.80;;
20657;SDS011;10488;50.846;4.078;2023-12-04T07:56:12;8.27;;;4.53;;
20657;SDS011;10488;50.846;4.078;2023-12-04T07:58:39;11.60;;;3.90;;
20657;SDS011;10488;50.846;4.078;2023-12-04T08:01:04;7.27;;;3.93;;
20657;SDS011;10488;50.846;4.078;2023-12-04T08:03:31;6.43;;;4.33;;
20657;SDS011;10488;50.846;4.078;2023-12-04T08:05:56;6.53;;;4.47;;
20657;SDS011;10488;50.846;4.078;2023-12-04T08:08:23;7.33;;;4.50;;
20657;SDS011;10488;50.846;4.078;2023-12-04T08:10:49;7.00;;;4.40;;
20657;SDS011;10488;50.846;4.078;2023-12-04T08:13:15;7.33;;;4.30;;
20657;SDS011;10488;50.846;4.078;2023-12-04T08:15:41;7.57;;;3.80;;
20657;SDS011;10488;50.846;4.078;2023-12-04T08:18:08;9.90;;;4.47;;
20657;SDS011;10488;50.846;4.078;2023-12-04T08:20:34;10.10;;;4.27;;
20657;SDS011;10488;50.846;4.078;2023-12-04T08:22:59;7.20;;;4.37;;
20657;SDS011;10488;50.846;4.078;2023-12-04T08:25:25;7.43;;;4.80;;
20657;SDS011;10488;50.846;4.078;2023-12-04T08:27:52;7.30;;;4.83;;
20657;SDS011;10488;50.846;4.078;2023-12-04T08:30:18;10.13;;;5.27;;
20657;SDS011;10488;50.846;4.078;2023-12-04T08:32:43;8.37;;;4.23;;
20657;SDS011;10488;50.846;4.078;2023-12-04T08:35:09;6.37;;;4.50;;
20657;SDS011;10488;50.846;4.078;2023-12-04T08:37:35;7.30;;;4.27;;
20657;SDS011;10488;50.846;4.078;2023-12-04T08:40:01;8.20;;;4.43;;
20657;SDS011;10488;50.846;4.078;2023-12-04T08:42:28;7.27;;;4.77;;
20657;SDS011;10488;50.846;4.078;2023-12-04T08:44:54;9.00;;;5.50;;
20657;SDS011;10488;50.846;4.078;2023-12-04T08:47:20;9.33;;;4.93;;
20657;SDS011;10488;50.846;4.078;2023-12-04T08:49:45;5.90;;;3.80;;
20657;SDS011;10488;50.846;4.078;2023-12-04T08:52:12;11.13;;;4.80;;
20657;SDS011;10488;50.846;4.078;2023-12-04T08:54:40;10.10;;;5.13;;
20657;SDS011;10488;50.846;4.078;2023-12-04T08:57:09;9.47;;;5.20;;
20657;SDS011;10488;50.846;4.078;2023-12-04T08:59:34;7.47;;;4.83;;
20657;SDS011;10488;50.846;4.078;2023-12-04T09:02:00;9.93;;;5.03;;
20657;SDS011;10488;50.846;4.078;2023-12-04T09:04:30;12.47;;;4.90;;
20657;SDS011;10488;50.846;4.078;2023-12-04T09:06:56;9.63;;;5.10;;
20657;SDS011;10488;50.846;4.078;2023-12-04T09:09:22;11.10;;;4.87;;
20657;SDS011;10488;50.846;4.078;2023-12-04T09:11:48;7.07;;;4.43;;
20657;SDS011;10488;50.846;4.078;2023-12-04T09:14:14;10.07;;;5.30;;
20657;SDS011;10488;50.846;4.078;2023-12-04T09:16:39;9.50;;;5.43;;
20657;SDS011;10488;50.846;4.078;2023-12-04T09:19:05;8.30;;;5.73;;
20657;SDS011;10488;50.846;4.078;2023-12-04T09:21:31;8.47;;;5.03;;
20657;SDS011;10488;50.846;4.078;2023-12-04T09:23:56;10.40;;;5.70;;
20657;SDS011;10488;50.846;4.078;2023-12-04T09:26:22;11.97;;;5.13;;
20657;SDS011;10488;50.846;4.078;2023-12-04T09:28:48;8.07;;;5.00;;
20657;SDS011;10488;50.846;4.078;2023-12-04T09:31:14;9.93;;;4.90;;
20657;SDS011;10488;50.846;4.078;2023-12-04T09:33:40;9.00;;;5.50;;
20657;SDS011;10488;50.846;4.078;2023-12-04T09:36:05;10.70;;;5.53;;
20657;SDS011;10488;50.846;4.078;2023-12-04T09:38:31;10.33;;;5.37;;
20657;SDS011;10488;50.846;4.078;2023-12-04T09:41:00;9.33;;;5.43;;
20657;SDS011;10488;50.846;4.078;2023-12-04T09:43:30;11.23;;;5.37;;
20657;SDS011;10488;50.846;4.078;2023-12-04T09:45:57;14.07;;;5.17;;
20657;SDS011;10488;50.846;4.078;2023-12-04T09:48:26;6.67;;;4.40;;
20657;SDS011;10488;50.846;4.078;2023-12-04T09:50:54;9.77;;;5.00;;
20657;SDS011;10488;50.846;4.078;2023-12-04T09:53:21;10.70;;;5.33;;
20657;SDS011;10488;50.846;4.078;2023-12-04T09:55:50;9.70;;;5.27;;
20657;SDS011;10488;50.846;4.078;2023-12-04T09:58:18;9.77;;;5.80;;
20657;SDS011;10488;50.846;4.078;2023-12-04T10:00:45;7.80;;;5.00;;
20657;SDS011;10488;50.846;4.078;2023-12-04T10:03:11;9.80;;;5.20;;
20657;SDS011;10488;50.846;4.078;2023-12-04T10:05:40;11.77;;;6.03;;
20657;SDS011;10488;50.846;4.078;2023-12-04T10:08:10;12.03;;;6.10;;
20657;SDS011;10488;50.846;4.078;2023-12-04T10:10:35;9.27;;;5.27;;
20657;SDS011;10488;50.846;4.078;2023-12-04T10:13:01;9.00;;;5.60;;
20657;SDS011;10488;50.846;4.078;2023-12-04T10:15:28;8.90;;;5.53;;
20657;SDS011;10488;50.846;4.078;2023-12-04T10:17:54;11.77;;;5.97;;
20657;SDS011;10488;50.846;4.078;2023-12-04T10:20:19;10.63;;;6.00;;
20657;SDS011;10488;50.846;4.078;2023-12-04T10:25:19;8.17;;;5.43;;
20657;SDS011;10488;50.846;4.078;2023-12-04T10:27:45;8.40;;;5.33;;
20657;SDS011;10488;50.846;4.078;2023-12-04T10:30:25;10.57;;;5.73;;
20657;SDS011;10488;50.846;4.078;2023-12-04T10:32:57;11.27;;;6.13;;
20657;SDS011;10488;50.846;4.078;2023-12-04T10:35:28;15.73;;;7.00;;
20657;SDS011;10488;50.846;4.078;2023-12-04T10:37:55;13.13;;;6.53;;
20657;SDS011;10488;50.846;4.078;2023-12-04T10:40:28;9.10;;;5.23;;
20657;SDS011;10488;50.846;4.078;2023-12-04T10:45:37;8.57;;;5.27;;
20657;SDS011;10488;50.846;4.078;2023-12-04T10:48:05;11.37;;;6.47;;
20657;SDS011;10488;50.846;4.078;2023-12-04T10:50:33;8.50;;;5.07;;
20657;SDS011;10488;50.846;4.078;2023-12-04T10:53:03;8.30;;;5.67;;
20657;SDS011;10488;50.846;4.078;2023-12-04T10:55:32;10.23;;;6.17;;
20657;SDS011;10488;50.846;4.078;2023-12-04T10:58:03;12.60;;;6.07;;
20657;SDS011;10488;50.846;4.078;2023-12-04T11:00:35;8.60;;;4.47;;
20657;SDS011;10488;50.846;4.078;2023-12-04T11:03:48;10.03;;;5.63;;
20657;SDS011;10488;50.846;4.078;2023-12-04T11:06:00;10.20;;;5.33;;
20657;SDS011;10488;50.846;4.078;2023-12-04T11:08:28;9.20;;;5.90;;
20657;SDS011;10488;50.846;4.078;2023-12-04T11:13:27;9.23;;;5.33;;
20657;SDS011;10488;50.846;4.078;2023-12-04T11:15:56;8.17;;;4.97;;
20657;SDS011;10488;50.846;4.078;2023-12-04T11:18:27;11.90;;;6.00;;
20657;SDS011;10488;50.846;4.078;2023-12-04T11:20:59;8.83;;;4.80;;
20657;SDS011;10488;50.846;4.078;2023-12-04T11:23:29;9.63;;;5.17;;
20657;SDS011;10488;50.846;4.078;2023-12-04T11:25:56;11.23;;;6.37;;
20657;SDS011;10488;50.846;4.078;2023-12-04T11:28:23;7.17;;;5.00;;
20657;SDS011;10488;50.846;4.078;2023-12-04T11:30:49;9.13;;;5.37;;
20657;SDS011;10488;50.846;4.078;2023-12-04T11:33:16;8.05;;;5.05;;
20657;SDS011;10488;50.846;4.078;2023-12-04T11:35:43;8.90;;;4.67;;
20657;SDS011;10488;50.846;4.078;2023-12-04T11:38:12;10.00;;;4.17;;
20657;SDS011;10488;50.846;4.078;2023-12-04T11:40:40;8.30;;;5.23;;
20657;SDS011;10488;50.846;4.078;2023-12-04T11:43:26;8.77;;;5.00;;
20657;SDS011;10488;50.846;4.078;2023-12-04T11:45:53;8.40;;;5.03;;
20657;SDS011;10488;50.846;4.078;2023-12-04T11:48:27;8.10;;;5.00;;
20657;SDS011;10488;50.846;4.078;2023-12-04T11:50:55;7.70;;;4.53;;
20657;SDS011;10488;50.846;4.078;2023-12-04T11:53:22;8.30;;;5.10;;
20657;SDS011;10488;50.846;4.078;2023-12-04T11:55:48;7.73;;;5.37;;
20657;SDS011;10488;50.846;4.078;2023-12-04T11:58:13;8.17;;;5.00;;
20657;SDS011;10488;50.846;4.078;2023-12-04T12:00:41;10.27;;;4.80;;
20657;SDS011;10488;50.846;4.078;2023-12-04T12:03:07;9.20;;;5.50;;
20657;SDS011;10488;50.846;4.078;2023-12-04T12:05:37;9.47;;;5.43;;
20657;SDS011;10488;50.846;4.078;2023-12-04T12:08:08;9.37;;;5.50;;
20657;SDS011;10488;50.846;4.078;2023-12-04T12:10:34;8.90;;;5.30;;
20657;SDS011;10488;50.846;4.078;2023-12-04T12:13:00;7.67;;;4.93;;
20657;SDS011;10488;50.846;4.078;2023-12-04T12:15:26;9.13;;;4.77;;
20657;SDS011;10488;50.846;4.078;2023-12-04T12:17:52;9.43;;;5.27;;
20657;SDS011;10488;50.846;4.078;2023-12-04T12:20:18;14.47;;;6.50;;
20657;SDS011;10488;50.846;4.078;2023-12-04T12:22:48;7.07;;;4.57;;
20657;SDS011;10488;50.846;4.078;2023-12-04T12:25:14;10.93;;;5.50;;
20657;SDS011;10488;50.846;4.078;2023-12-04T12:27:40;8.77;;;5.37;;
20657;SDS011;10488;50.846;4.078;2023-12-04T12:30:08;7.03;;;4.90;;
20657;SDS011;10488;50.846;4.078;2023-12-04T12:32:34;10.63;;;5.07;;
20657;SDS011;10488;50.846;4.078;2023-12-04T12:35:00;20.97;;;9.63;;
20657;SDS011;10488;50.846;4.078;2023-12-04T12:37:26;9.17;;;5.07;;
20657;SDS011;10488;50.846;4.078;2023-12-04T12:39:53;21.00;;;9.47;;
20657;SDS011;10488;50.846;4.078;2023-12-04T12:42:22;8.93;;;4.77;;
20657;SDS011;10488;50.846;4.078;2023-12-04T12:44:52;6.17;;;4.40;;
20657;SDS011;10488;50.846;4.078;2023-12-04T12:47:19;7.37;;;4.67;;
20657;SDS011;10488;50.846;4.078;2023-12-04T12:49:44;7.47;;;5.00;;
20657;SDS011;10488;50.846;4.078;2023-12-04T12:52:10;6.20;;;4.23;;
20657;SDS011;10488;50.846;4.078;2023-12-04T12:54:39;7.00;;;4.30;;
20657;SDS011;10488;50.846;4.078;2023-12-04T12:57:06;8.03;;;4.73;;
20657;SDS011;10488;50.846;4.078;2023-12-04T12:59:32;6.97;;;4.20;;
20657;SDS011;10488;50.846;4.078;2023-12-04T13:01:58;7.30;;;4.97;;
20657;SDS011;10488;50.846;4.078;2023-12-04T13:04:36;5.90;;;4.10;;
20657;SDS011;10488;50.846;4.078;2023-12-04T13:07:03;9.00;;;4.60;;
20657;SDS011;10488;50.846;4.078;2023-12-04T13:09:30;7.07;;;4.17;;
20657;SDS011;10488;50.846;4.078;2023-12-04T13:11:57;7.77;;;4.03;;
20657;SDS011;10488;50.846;4.078;2023-12-04T13:14:23;7.77;;;4.80;;
20657;SDS011;10488;50.846;4.078;2023-12-04T13:16:49;6.93;;;4.60;;
20657;SDS011;10488;50.846;4.078;2023-12-04T13:19:15;5.17;;;4.07;;
20657;SDS011;10488;50.846;4.078;2023-12-04T13:21:42;6.23;;;4.17;;
20657;SDS011;10488;50.846;4.078;2023-12-04T13:24:09;6.33;;;4.10;;
20657;SDS011;10488;50.846;4.078;2023-12-04T13:26:36;6.70;;;4.37;;
20657;SDS011;10488;50.846;4.078;2023-12-04T13:29:01;6.20;;;3.80;;
20657;SDS011;10488;50.846;4.078;2023-12-04T13:31:27;6.07;;;3.60;;
20657;SDS011;10488;50.846;4.078;2023-12-04T13:33:53;7.63;;;3.70;;
20657;SDS011;10488;50.846;4.078;2023-12-04T13:36:19;7.23;;;3.73;;
20657;SDS011;10488;50.846;4.078;2023-12-04T13:38:45;7.60;;;4.88;;
20657;SDS011;10488;50.846;4.078;2023-12-04T13:41:11;5.63;;;3.93;;
20657;SDS011;10488;50.846;4.078;2023-12-04T13:43:55;7.00;;;3.90;;
20657;SDS011;10488;50.846;4.078;2023-12-04T13:46:21;6.53;;;3.93;;
20657;SDS011;10488;50.846;4.078;2023-12-04T13:48:47;6.20;;;3.77;;
20657;SDS011;10488;50.846;4.078;2023-12-04T13:51:13;5.30;;;3.70;;
20657;SDS011;10488;50.846;4.078;2023-12-04T13:53:40;4.87;;;3.40;;
20657;SDS011;10488;50.846;4.078;2023-12-04T13:56:10;4.83;;;3.70;;
20657;SDS011;10488;50.846;4.078;2023-12-04T13:58:36;4.88;;;3.78;;
20657;SDS011;10488;50.846;4.078;2023-12-04T14:01:09;5.55;;;3.75;;
20657;SDS011;10488;50.846;4.078;2023-12-04T14:03:39;6.87;;;3.97;;
20657;SDS011;10488;50.846;4.078;2023-12-04T14:06:07;5.10;;;3.60;;
20657;SDS011;10488;50.846;4.078;2023-12-04T14:08:33;7.73;;;6.27;;
20657;SDS011;10488;50.846;4.078;2023-12-04T14:10:58;6.43;;;3.83;;
20657;SDS011;10488;50.846;4.078;2023-12-04T14:13:24;4.53;;;3.63;;
20657;SDS011;10488;50.846;4.078;2023-12-04T14:15:50;7.27;;;3.83;;
20657;SDS011;10488;50.846;4.078;2023-12-04T14:18:15;6.07;;;4.32;;
20657;SDS011;10488;50.846;4.078;2023-12-04T14:20:41;7.30;;;4.27;;
20657;SDS011;10488;50.846;4.078;2023-12-04T14:23:07;5.67;;;4.43;;
20657;SDS011;10488;50.846;4.078;2023-12-04T14:25:33;6.83;;;4.50;;
20657;SDS011;10488;50.846;4.078;2023-12-04T14:27:59;6.03;;;4.30;;
20657;SDS011;10488;50.846;4.078;2023-12-04T14:30:26;8.02;;;5.15;;
20657;SDS011;10488;50.846;4.078;2023-12-04T14:32:52;6.90;;;4.30;;
20657;SDS011;10488;50.846;4.078;2023-12-04T14:35:18;7.43;;;4.70;;
20657;SDS011;10488;50.846;4.078;2023-12-04T14:37:44;6.82;;;4.22;;
20657;SDS011;10488;50.846;4.078;2023-12-04T14:40:12;7.80;;;4.60;;
20657;SDS011;10488;50.846;4.078;2023-12-04T14:42:39;5.68;;;3.92;;
20657;SDS011;10488;50.846;4.078;2023-12-04T14:45:04;4.90;;;3.70;;
20657;SDS011;10488;50.846;4.078;2023-12-04T14:47:30;4.10;;;3.70;;
20657;SDS011;10488;50.846;4.078;2023-12-04T14:49:56;10.63;;;4.53;;